Time;durP1;ratioP1;P1;durP2;ratioP2;P2;SDS_P1;SDS_P2;PMS_P1;PMS_P2;Temp;Humidity;BMP_temperature;BMP_pressure;BME280_temperature;BME280_humidity;BME280_pressure;Samples;Min_cycle;Max_cycle;Signal;HPM_P1;HPM_P2
2021/04/10 00:00:27;;;;;;;57.58;27.42;;;1.90;79.70;;;;;;5092455;28;20046;-87
2021/04/10 00:02:53;;;;;;;53.92;22.98;;;1.90;79.40;;;;;;5092532;28;20024;-87
2021/04/10 00:05:22;;;;;;;58.67;27.02;;;1.80;79.70;;;;;;5093623;28;20430;-87
2021/04/10 00:07:48;;;;;;;54.50;25.30;;;1.70;79.40;;;;;;5093771;28;20027;-86
2021/04/10 00:10:14;;;;;;;44.70;22.05;;;1.70;80.40;;;;;;5092367;28;20016;-86
2021/04/10 00:12:41;;;;;;;44.40;23.05;;;1.70;80.50;;;;;;5092368;28;20028;-86
2021/04/10 00:15:09;;;;;;;39.05;18.05;;;1.60;80.00;;;;;;5092419;28;20055;-87
2021/04/10 00:17:35;;;;;;;31.65;13.57;;;1.60;78.60;;;;;;5093489;28;20461;-86
2021/04/10 00:20:00;;;;;;;28.45;16.67;;;1.60;77.20;;;;;;5092179;28;20031;-87
2021/04/10 00:22:26;;;;;;;19.98;10.52;;;1.60;75.40;;;;;;5091720;28;20534;-85
2021/04/10 00:24:52;;;;;;;22.13;11.52;;;1.50;74.20;;;;;;5090992;28;20525;-88
2021/04/10 00:27:18;;;;;;;20.40;10.23;;;1.40;73.60;;;;;;5093422;28;20154;-85
2021/04/10 00:29:43;;;;;;;18.00;10.30;;;1.40;73.30;;;;;;5096514;28;20038;-86
2021/04/10 00:32:09;;;;;;;49.85;24.30;;;1.40;73.20;;;;;;5113845;27;20056;-85
2021/04/10 00:34:35;;;;;;;34.30;15.15;;;1.30;74.40;;;;;;5113606;28;20036;-86
2021/04/10 00:37:00;;;;;;;30.55;13.23;;;1.30;75.00;;;;;;5113672;28;20104;-84
2021/04/10 00:39:26;;;;;;;34.10;16.17;;;1.30;76.20;;;;;;5112275;28;20027;-87
2021/04/10 00:41:51;;;;;;;32.67;17.35;;;1.20;76.70;;;;;;5112174;28;20366;-81
2021/04/10 00:44:17;;;;;;;34.72;18.27;;;1.30;77.30;;;;;;5112233;28;20031;-86
2021/04/10 00:46:43;;;;;;;34.42;17.80;;;1.20;78.30;;;;;;5112215;28;20020;-87
2021/04/10 00:49:08;;;;;;;29.83;15.43;;;1.20;79.70;;;;;;5113583;28;20487;-87
2021/04/10 00:51:34;;;;;;;29.35;15.93;;;1.10;79.80;;;;;;5095526;28;20056;-86
2021/04/10 00:54:00;;;;;;;31.10;13.05;;;1.10;79.90;;;;;;5071513;28;20470;-87
2021/04/10 00:56:26;;;;;;;30.17;13.63;;;1.10;79.90;;;;;;5071330;28;20074;-86
2021/04/10 00:58:51;;;;;;;29.60;13.30;;;1.00;79.60;;;;;;5105521;28;20023;-85
2021/04/10 01:01:18;;;;;;;30.35;14.73;;;1.00;79.70;;;;;;5071566;28;20063;-87
2021/04/10 01:03:44;;;;;;;29.30;15.02;;;0.90;80.90;;;;;;5071494;28;20086;-87
2021/04/10 01:06:10;;;;;;;48.60;30.88;;;0.90;80.50;;;;;;5071509;28;20432;-87
2021/04/10 01:08:36;;;;;;;29.92;17.33;;;0.90;80.30;;;;;;5071404;28;20489;-86
2021/04/10 01:11:25;;;;;;;26.92;16.90;;;0.90;80.40;;;;;;5071441;28;20027;-87
2021/04/10 01:13:59;;;;;;;21.20;13.75;;;0.80;81.00;;;;;;5071357;28;20031;-87
2021/04/10 01:16:32;;;;;;;20.25;10.93;;;0.80;80.90;;;;;;5071422;28;20063;-87
2021/04/10 01:19:26;;;;;;;19.10;9.80;;;0.70;80.60;;;;;;5072597;28;20116;-86
2021/04/10 01:22:35;;;;;;;20.35;11.90;;;0.80;79.70;;;;;;5072306;28;20043;-86
2021/04/10 01:25:06;;;;;;;23.23;12.40;;;0.70;79.30;;;;;;5066180;28;20389;-86
2021/04/10 01:27:41;;;;;;;19.73;11.13;;;0.70;79.80;;;;;;5072602;28;20074;-86
2021/04/10 01:30:18;;;;;;;27.77;11.13;;;0.70;80.40;;;;;;5079731;28;20019;-86
2021/04/10 01:33:03;;;;;;;26.35;10.55;;;0.70;80.50;;;;;;5112013;28;20031;-86
2021/04/10 01:35:54;;;;;;;22.23;11.70;;;0.70;80.10;;;;;;5111801;28;20077;-87
2021/04/10 01:38:25;;;;;;;20.95;12.82;;;0.70;80.80;;;;;;5111823;28;20055;-86
2021/04/10 01:40:52;;;;;;;27.23;12.02;;;0.60;80.50;;;;;;5112844;28;20485;-86
2021/04/10 01:43:18;;;;;;;24.85;13.18;;;0.50;83.80;;;;;;5111718;28;20028;-86
2021/04/10 01:45:46;;;;;;;21.88;13.30;;;0.50;83.90;;;;;;5111580;28;20354;-86
2021/04/10 01:48:14;;;;;;;26.73;13.27;;;0.50;84.30;;;;;;5111650;28;20024;-86
2021/04/10 01:50:41;;;;;;;33.85;13.60;;;0.50;84.70;;;;;;5111623;28;20015;-86
2021/04/10 01:53:08;;;;;;;24.83;11.95;;;0.50;84.80;;;;;;5072425;28;20481;-86
2021/04/10 01:55:35;;;;;;;29.90;14.85;;;0.50;85.50;;;;;;5075442;28;20031;-87
2021/04/10 01:58:02;;;;;;;28.38;15.02;;;0.40;86.50;;;;;;5072325;28;20028;-87
2021/04/10 02:00:32;;;;;;;25.23;12.48;;;0.30;88.30;;;;;;5076371;28;20043;-86
2021/04/10 02:02:58;;;;;;;23.25;11.75;;;0.30;87.30;;;;;;5090775;28;20477;-86
2021/04/10 02:05:27;;;;;;;34.53;13.73;;;0.30;86.50;;;;;;5091134;28;20028;-86
2021/04/10 02:07:54;;;;;;;25.60;11.40;;;0.30;85.70;;;;;;5089239;28;20111;-86
2021/04/10 02:10:27;;;;;;;34.60;11.45;;;0.30;86.40;;;;;;5075799;28;20032;-86
2021/04/10 02:12:53;;;;;;;26.27;11.05;;;0.30;87.40;;;;;;5074495;28;20016;-86
2021/04/10 02:15:21;;;;;;;24.55;11.73;;;0.30;86.60;;;;;;5074379;28;20059;-85
2021/04/10 02:17:46;;;;;;;28.10;11.90;;;0.40;86.20;;;;;;5076684;28;20031;-85
2021/04/10 02:20:14;;;;;;;23.35;11.70;;;0.40;86.40;;;;;;5074468;28;20024;-85
2021/04/10 02:22:44;;;;;;;29.48;12.05;;;0.40;86.90;;;;;;5074180;28;20067;-86
2021/04/10 02:25:10;;;;;;;28.50;12.48;;;0.30;87.50;;;;;;5074273;28;20047;-87
2021/04/10 02:27:36;;;;;;;26.17;12.02;;;0.30;88.30;;;;;;5075351;28;20025;-86
2021/04/10 02:30:04;;;;;;;28.55;12.68;;;0.20;89.50;;;;;;5075432;28;20466;-83
2021/04/10 02:32:55;;;;;;;27.80;11.30;;;0.30;89.70;;;;;;5074321;28;20505;-86
2021/04/10 02:35:42;;;;;;;27.73;11.27;;;0.20;87.80;;;;;;5075320;28;20093;-86
2021/04/10 02:38:11;;;;;;;32.53;11.05;;;0.20;87.80;;;;;;5075467;28;20020;-86
2021/04/10 02:40:41;;;;;;;21.40;9.02;;;0.20;87.90;;;;;;5073754;28;20040;-86
2021/04/10 02:43:10;;;;;;;28.45;10.02;;;0.20;87.70;;;;;;5074044;28;20037;-86
2021/04/10 02:45:38;;;;;;;22.33;11.13;;;0.20;87.30;;;;;;5074030;28;20020;-86
2021/04/10 02:48:08;;;;;;;18.25;10.07;;;0.20;88.00;;;;;;5073882;28;20124;-86
2021/04/10 02:50:35;;;;;;;24.90;10.77;;;0.20;88.10;;;;;;5073656;28;20479;-86
2021/04/10 02:53:04;;;;;;;19.88;8.15;;;0.10;88.30;;;;;;5073628;28;20471;-86
2021/04/10 02:55:39;;;;;;;17.33;9.70;;;0.10;89.00;;;;;;5073559;28;20052;-86
2021/04/10 02:58:09;;;;;;;17.77;8.82;;;0.10;88.30;;;;;;5074981;28;20378;-86
2021/04/10 03:00:36;;;;;;;16.83;8.40;;;0.10;87.60;;;;;;5073406;28;20035;-86
2021/04/10 03:03:04;;;;;;;15.98;8.77;;;0.10;86.90;;;;;;5073524;28;20020;-86
2021/04/10 03:05:31;;;;;;;24.10;9.65;;;0.10;87.00;;;;;;5073458;28;20111;-86
2021/04/10 03:07:57;;;;;;;14.95;8.13;;;0.20;86.90;;;;;;5073391;28;20025;-85
2021/04/10 03:10:24;;;;;;;18.25;7.63;;;0.20;86.50;;;;;;5074693;28;20085;-85
2021/04/10 03:12:52;;;;;;;12.77;7.00;;;0.30;85.20;;;;;;5074620;28;20040;-85
2021/04/10 03:15:19;;;;;;;16.52;7.93;;;0.40;83.80;;;;;;5074512;28;20024;-86
2021/04/10 03:17:45;;;;;;;17.15;8.13;;;0.60;82.40;;;;;;5073175;28;20024;-85
2021/04/10 03:20:15;;;;;;;20.25;10.05;;;0.60;82.50;;;;;;5074493;28;20021;-86
2021/04/10 03:22:47;;;;;;;21.63;11.10;;;0.50;82.70;;;;;;5073275;28;20419;-86
2021/04/10 03:25:14;;;;;;;26.00;11.63;;;0.40;83.50;;;;;;5056160;28;20035;-86
2021/04/10 03:27:41;;;;;;;21.45;10.90;;;0.40;85.20;;;;;;5072948;28;20032;-87
2021/04/10 03:30:08;;;;;;;48.95;18.27;;;0.20;86.20;;;;;;5073209;28;20103;-86
2021/04/10 03:32:36;;;;;;;62.00;21.08;;;0.00;87.70;;;;;;5074267;28;20020;-86
2021/04/10 03:35:02;;;;;;;76.45;28.25;;;-0.10;89.80;;;;;;5072873;28;20066;-86
2021/04/10 03:37:31;;;;;;;39.70;16.15;;;-0.10;92.00;;;;;;5073025;28;20031;-85
2021/04/10 03:40:00;;;;;;;26.17;13.35;;;-0.20;92.40;;;;;;5072684;28;20030;-86
2021/04/10 03:42:37;;;;;;;29.67;12.93;;;-0.20;92.00;;;;;;5072799;28;20470;-85
2021/04/10 03:45:04;;;;;;;28.67;12.77;;;-0.30;92.70;;;;;;5072651;28;20036;-86
2021/04/10 03:47:31;;;;;;;25.08;12.32;;;-0.40;93.70;;;;;;5073881;28;20031;-85
2021/04/10 03:49:56;;;;;;;27.85;12.55;;;-0.40;94.70;;;;;;5072547;28;20028;-85
2021/04/10 03:52:22;;;;;;;25.25;11.82;;;-0.40;95.00;;;;;;5084966;28;20031;-84
2021/04/10 03:54:48;;;;;;;26.67;11.68;;;-0.40;95.00;;;;;;5094039;28;20028;-85
2021/04/10 03:57:13;;;;;;;28.80;11.60;;;-0.40;94.40;;;;;;5094089;28;20427;-85
2021/04/10 03:59:39;;;;;;;23.52;10.60;;;-0.40;93.90;;;;;;5092469;28;20024;-86
2021/04/10 04:02:04;;;;;;;28.65;11.20;;;-0.40;93.50;;;;;;5092631;28;20397;-85
2021/04/10 04:04:30;;;;;;;23.63;11.38;;;-0.30;93.70;;;;;;5093813;28;20028;-84
2021/04/10 04:06:56;;;;;;;36.65;11.82;;;-0.30;94.10;;;;;;5092560;28;20020;-85
2021/04/10 04:09:21;;;;;;;39.95;11.32;;;-0.30;94.00;;;;;;5093749;28;20381;-86
2021/04/10 04:11:47;;;;;;;29.13;10.35;;;-0.30;93.70;;;;;;5093719;28;20153;-85
2021/04/10 04:14:13;;;;;;;31.80;12.23;;;-0.30;94.30;;;;;;5092425;28;20062;-86
2021/04/10 04:16:38;;;;;;;18.33;10.77;;;-0.30;94.40;;;;;;5093573;28;20020;-85
2021/04/10 04:19:04;;;;;;;32.53;12.65;;;-0.30;94.30;;;;;;5092365;28;20050;-87
2021/04/10 04:21:29;;;;;;;32.60;12.43;;;-0.30;94.70;;;;;;5088182;28;20043;-86
2021/04/10 04:23:55;;;;;;;35.13;15.57;;;-0.30;95.60;;;;;;5073137;28;20386;-85
2021/04/10 04:26:20;;;;;;;26.38;11.02;;;-0.30;96.60;;;;;;5105612;28;20024;-84
2021/04/10 04:28:46;;;;;;;37.60;12.07;;;-0.20;96.90;;;;;;5112344;28;20024;-85
2021/04/10 04:31:12;;;;;;;26.00;10.48;;;-0.20;96.30;;;;;;5111981;28;20055;-86
2021/04/10 04:33:37;;;;;;;35.80;11.85;;;-0.20;96.40;;;;;;5112278;28;20020;-85
2021/04/10 04:36:03;;;;;;;27.40;11.55;;;-0.20;96.10;;;;;;5096113;28;20479;-85
2021/04/10 04:38:29;;;;;;;32.13;12.70;;;-0.10;96.80;;;;;;5071765;28;20452;-84
2021/04/10 04:40:54;;;;;;;35.72;15.20;;;0.00;96.80;;;;;;5071481;28;20124;-85
2021/04/10 04:43:20;;;;;;;39.22;15.73;;;-0.10;96.10;;;;;;5071711;28;20115;-85
2021/04/10 04:45:46;;;;;;;32.05;16.05;;;0.00;96.90;;;;;;5071513;28;20414;-85
2021/04/10 04:48:11;;;;;;;35.08;15.68;;;0.00;97.30;;;;;;5071671;28;20020;-86
2021/04/10 04:50:37;;;;;;;37.00;16.85;;;0.20;97.30;;;;;;5071528;28;20067;-85
2021/04/10 04:53:02;;;;;;;87.28;29.08;;;0.30;97.50;;;;;;5087882;28;20035;-87
2021/04/10 04:55:28;;;;;;;57.97;21.38;;;0.40;97.00;;;;;;5091669;28;20024;-86
2021/04/10 04:57:54;;;;;;;64.20;23.90;;;0.50;96.60;;;;;;5091701;28;20020;-85
2021/04/10 05:00:20;;;;;;;56.20;20.52;;;0.70;96.20;;;;;;5091435;28;20035;-86
2021/04/10 05:02:46;;;;;;;57.05;21.45;;;0.80;95.40;;;;;;5091621;28;20033;-85
2021/04/10 05:05:12;;;;;;;67.43;25.08;;;1.00;94.60;;;;;;5092559;28;20095;-88
2021/04/10 05:07:38;;;;;;;63.95;23.95;;;1.10;93.80;;;;;;5091672;28;20112;-88
2021/04/10 05:10:04;;;;;;;54.38;22.45;;;1.20;93.30;;;;;;5092986;28;20066;-85
2021/04/10 05:12:29;;;;;;;68.55;22.38;;;1.40;93.20;;;;;;5092955;28;20093;-85
2021/04/10 05:14:55;;;;;;;51.22;20.30;;;1.40;92.70;;;;;;5091005;28;20489;-86
2021/04/10 05:17:21;;;;;;;55.03;22.52;;;1.50;91.40;;;;;;5091736;28;20024;-85
2021/04/10 05:19:46;;;;;;;52.03;22.27;;;1.60;91.80;;;;;;5087142;28;20028;-85
2021/04/10 05:22:12;;;;;;;43.83;16.52;;;1.70;91.90;;;;;;5088838;28;20397;-84
2021/04/10 05:24:38;;;;;;;45.60;18.35;;;1.80;90.80;;;;;;5091741;28;20213;-86
2021/04/10 05:27:06;;;;;;;45.38;18.55;;;2.00;90.50;;;;;;5087859;28;20109;-86
2021/04/10 05:29:31;;;;;;;40.08;18.70;;;2.10;91.20;;;;;;5100029;28;20031;-84
2021/04/10 05:31:57;;;;;;;35.42;15.15;;;2.20;90.70;;;;;;5111523;28;20088;-84
2021/04/10 05:34:23;;;;;;;57.42;27.17;;;2.40;90.90;;;;;;5112514;28;20035;-83
2021/04/10 05:36:48;;;;;;;56.75;29.33;;;2.60;90.10;;;;;;5112867;28;20011;-84
2021/04/10 05:39:14;;;;;;;45.95;23.02;;;2.80;89.60;;;;;;5112336;28;20060;-86
2021/04/10 05:41:39;;;;;;;48.45;22.58;;;3.00;88.20;;;;;;5109829;28;20472;-83
2021/04/10 05:44:05;;;;;;;46.55;22.77;;;3.20;87.90;;;;;;5114029;28;20032;-86
2021/04/10 05:46:31;;;;;;;47.83;21.60;;;3.40;88.60;;;;;;5114722;28;20020;-84
2021/04/10 05:48:56;;;;;;;41.17;19.70;;;3.70;87.80;;;;;;5113275;28;20073;-85
2021/04/10 05:51:22;;;;;;;38.25;19.23;;;3.90;86.40;;;;;;5095049;28;20020;-84
2021/04/10 05:53:48;;;;;;;33.25;17.90;;;4.10;84.70;;;;;;5093067;28;20061;-85
2021/04/10 05:56:14;;;;;;;40.10;17.83;;;4.30;83.00;;;;;;5096132;28;20101;-85
2021/04/10 05:58:40;;;;;;;27.42;12.55;;;4.50;80.70;;;;;;5094900;28;20024;-84
2021/04/10 06:01:05;;;;;;;28.65;12.15;;;4.80;76.90;;;;;;5095648;28;20084;-82
2021/04/10 06:03:31;;;;;;;30.75;14.55;;;5.00;73.50;;;;;;5109556;28;20431;-84
2021/04/10 06:05:57;;;;;;;21.13;10.48;;;5.30;75.60;;;;;;5094769;28;20064;-84
2021/04/10 06:08:22;;;;;;;18.40;9.07;;;5.40;72.90;;;;;;5096044;28;20052;-84
2021/04/10 06:10:48;;;;;;;18.13;9.20;;;5.60;72.20;;;;;;5092599;28;20645;-86
2021/04/10 06:13:15;;;;;;;13.15;7.03;;;5.80;73.30;;;;;;5100552;28;20384;-83
2021/04/10 06:15:40;;;;;;;16.63;9.98;;;6.00;73.10;;;;;;5104529;28;20020;-85
2021/04/10 06:18:06;;;;;;;13.70;7.18;;;6.10;72.50;;;;;;5103875;28;20416;-83
2021/04/10 06:20:32;;;;;;;17.85;7.07;;;6.40;71.00;;;;;;5103605;28;20027;-85
2021/04/10 06:22:59;;;;;;;18.13;7.95;;;6.60;68.00;;;;;;5105427;28;20020;-85
2021/04/10 06:25:25;;;;;;;11.45;6.15;;;6.90;67.50;;;;;;5103478;28;20051;-85
2021/04/10 06:27:50;;;;;;;12.10;5.72;;;7.10;66.20;;;;;;5098482;28;20048;-86
2021/04/10 06:30:16;;;;;;;14.88;6.55;;;7.40;64.90;;;;;;5094240;28;20052;-87
2021/04/10 06:32:42;;;;;;;16.15;6.28;;;7.60;62.70;;;;;;5099959;28;20455;-87
2021/04/10 06:35:08;;;;;;;14.30;6.40;;;7.80;59.90;;;;;;5101088;28;20366;-88
2021/04/10 06:37:35;;;;;;;12.60;6.18;;;8.00;59.40;;;;;;5104766;28;20020;-88
2021/04/10 06:40:01;;;;;;;12.70;6.65;;;8.30;58.80;;;;;;5102884;28;20012;-87
2021/04/10 06:42:27;;;;;;;10.80;6.63;;;8.50;58.60;;;;;;5101921;28;20024;-86
2021/04/10 06:44:54;;;;;;;11.10;6.00;;;8.70;57.90;;;;;;5098917;28;20020;-88
2021/04/10 06:47:22;;;;;;;12.90;5.43;;;9.00;56.60;;;;;;5105874;28;20027;-87
2021/04/10 06:49:51;;;;;;;10.38;6.00;;;9.10;55.60;;;;;;5114079;28;20469;-89
2021/04/10 06:52:18;;;;;;;11.02;6.00;;;9.30;55.00;;;;;;5114277;28;20031;-88
2021/04/10 06:54:48;;;;;;;12.85;6.63;;;9.50;54.50;;;;;;5112048;28;20023;-90
2021/04/10 06:57:16;;;;;;;9.95;5.20;;;9.70;54.10;;;;;;5096128;28;20469;-90
2021/04/10 06:59:55;;;;;;;9.40;6.05;;;9.90;53.90;;;;;;5097611;28;20036;-90
2021/04/10 07:02:22;;;;;;;11.05;6.68;;;10.10;52.30;;;;;;5093687;28;20123;-91
2021/04/10 07:04:49;;;;;;;11.73;6.28;;;10.10;51.40;;;;;;5094757;28;20500;-91
2021/04/10 07:07:15;;;;;;;14.15;6.63;;;10.30;51.90;;;;;;5094520;28;20066;-91
2021/04/10 07:09:41;;;;;;;12.60;6.95;;;10.40;50.70;;;;;;5093858;28;20024;-85
2021/04/10 07:12:08;;;;;;;13.95;6.75;;;10.50;49.60;;;;;;5076716;28;20105;-88
2021/04/10 07:14:35;;;;;;;10.45;6.40;;;10.60;50.20;;;;;;5074442;28;20478;-91
2021/04/10 07:17:01;;;;;;;10.80;6.35;;;10.70;50.10;;;;;;5072950;28;20393;-90
2021/04/10 07:19:28;;;;;;;15.43;8.02;;;10.80;49.80;;;;;;5077786;28;20020;-90
2021/04/10 07:22:13;;;;;;;9.50;5.82;;;11.00;49.90;;;;;;5104059;28;20090;-89
2021/04/10 07:24:42;;;;;;;8.45;5.78;;;11.10;49.40;;;;;;5092716;28;20392;-88
2021/04/10 07:27:13;;;;;;;10.75;5.60;;;11.30;49.70;;;;;;5094256;28;20028;-89
2021/04/10 07:29:45;;;;;;;12.70;6.13;;;11.50;49.90;;;;;;5094472;28;20103;-87
2021/04/10 07:32:33;;;;;;;8.15;4.93;;;11.50;48.00;;;;;;5094271;28;20024;-87
2021/04/10 07:35:13;;;;;;;16.98;10.65;;;11.70;47.90;;;;;;5090618;28;20581;-86
2021/04/10 07:37:41;;;;;;;8.60;5.03;;;11.70;47.30;;;;;;5093691;28;20060;-86
2021/04/10 07:40:19;;;;;;;9.63;4.93;;;11.90;47.50;;;;;;5091828;28;20028;-88
2021/04/10 07:42:46;;;;;;;10.18;5.50;;;12.00;47.00;;;;;;5093611;28;20080;-88
2021/04/10 07:45:24;;;;;;;9.80;5.68;;;12.20;46.90;;;;;;5098737;28;20103;-85
2021/04/10 07:47:51;;;;;;;7.93;5.00;;;12.40;47.30;;;;;;5092052;28;20095;-86
2021/04/10 07:50:23;;;;;;;10.80;4.75;;;12.70;46.80;;;;;;5091423;28;20028;-86
2021/04/10 07:52:49;;;;;;;8.60;4.53;;;12.70;45.60;;;;;;5087700;28;20012;-86
2021/04/10 07:55:41;;;;;;;6.25;3.88;;;12.90;44.70;;;;;;5095256;28;20024;-86
2021/04/10 07:58:23;;;;;;;11.10;4.10;;;13.00;44.90;;;;;;5086250;28;20036;-89
2021/04/10 08:00:53;;;;;;;6.73;4.10;;;13.10;43.90;;;;;;5090981;28;20036;-87
2021/04/10 08:03:33;;;;;;;6.85;3.88;;;13.10;43.50;;;;;;5089179;28;20284;-89
2021/04/10 08:06:04;;;;;;;6.10;3.72;;;13.30;43.10;;;;;;5090601;28;20055;-87
2021/04/10 08:08:31;;;;;;;6.72;3.75;;;13.20;42.30;;;;;;5091045;28;20083;-84
2021/04/10 08:11:00;;;;;;;7.53;3.90;;;13.30;42.40;;;;;;5089027;28;20126;-85
2021/04/10 08:13:26;;;;;;;8.30;3.85;;;13.40;42.20;;;;;;5090734;28;20020;-85
2021/04/10 08:16:11;;;;;;;8.52;3.72;;;13.50;41.90;;;;;;5077788;28;20021;-85
2021/04/10 08:18:44;;;;;;;7.00;3.67;;;13.60;42.30;;;;;;5076567;28;20162;-83
2021/04/10 08:21:10;;;;;;;;;;;13.70;41.60;;;;;;5090255;28;20460;-84
2021/04/10 08:23:36;;;;;;;9.63;4.15;;;14.00;42.30;;;;;;5089430;28;19923;-84
2021/04/10 08:26:03;;;;;;;8.40;3.95;;;14.20;42.20;;;;;;5090057;28;20036;-84
2021/04/10 08:28:29;;;;;;;9.68;3.88;;;14.20;40.80;;;;;;5090024;28;20023;-84
2021/04/10 08:30:58;;;;;;;5.07;3.75;;;14.40;40.90;;;;;;5090195;28;20032;-83
2021/04/10 08:33:26;;;;;;;6.82;4.40;;;14.50;40.90;;;;;;5089658;28;20035;-84
2021/04/10 08:35:55;;;;;;;5.80;3.75;;;14.60;40.80;;;;;;5090219;28;20019;-83
2021/04/10 08:38:25;;;;;;;7.82;3.97;;;14.70;39.90;;;;;;5089822;28;20024;-82
2021/04/10 08:40:56;;;;;;;7.90;4.30;;;14.70;39.80;;;;;;5088448;28;20043;-88
2021/04/10 08:43:26;;;;;;;5.38;4.03;;;14.90;39.80;;;;;;5089396;28;20020;-84
2021/04/10 08:45:54;;;;;;;7.68;4.45;;;15.00;39.80;;;;;;5097356;28;20043;-82
2021/04/10 08:48:21;;;;;;;5.53;4.05;;;15.10;39.60;;;;;;5089801;28;20115;-82
2021/04/10 08:50:51;;;;;;;6.35;4.10;;;15.20;38.90;;;;;;5093069;28;20546;-81
2021/04/10 08:53:23;;;;;;;7.47;4.50;;;15.30;38.60;;;;;;5088443;28;20031;-82
2021/04/10 08:55:52;;;;;;;;;;;15.30;38.40;;;;;;5089601;28;20016;-81
2021/04/10 08:58:28;;;;;;;7.88;4.72;;;15.10;37.70;;;;;;5084857;28;20631;-82
2021/04/10 09:00:55;;;;;;;5.95;4.30;;;15.10;37.60;;;;;;5084255;28;20036;-82
2021/04/10 09:03:41;;;;;;;7.18;4.38;;;15.30;38.60;;;;;;5089235;28;20024;-84
2021/04/10 09:06:07;;;;;;;8.15;4.43;;;15.30;37.80;;;;;;5089331;28;20110;-82
2021/04/10 09:08:32;;;;;;;12.02;4.72;;;15.10;36.90;;;;;;5088885;28;20502;-83
2021/04/10 09:11:00;;;;;;;10.98;5.32;;;15.10;36.80;;;;;;5086105;28;20032;-83
2021/04/10 09:13:28;;;;;;;8.13;5.30;;;15.20;37.10;;;;;;5085615;28;20385;-82
2021/04/10 09:16:25;;;;;;;9.32;5.03;;;15.30;37.70;;;;;;5090600;28;20397;-81
2021/04/10 09:19:12;;;;;;;6.88;4.28;;;15.20;36.60;;;;;;5094787;28;20035;-82
2021/04/10 09:21:40;;;;;;;6.78;4.80;;;15.20;36.90;;;;;;5094348;28;20035;-81
2021/04/10 09:24:18;;;;;;;9.93;5.22;;;15.30;37.20;;;;;;5096152;28;20477;-81
2021/04/10 09:26:57;;;;;;;9.90;5.75;;;15.30;36.90;;;;;;5096016;28;20051;-81
2021/04/10 09:29:24;;;;;;;7.88;4.40;;;15.30;37.10;;;;;;5093508;28;20454;-81
2021/04/10 09:32:10;;;;;;;7.97;4.75;;;15.30;37.10;;;;;;5093631;28;20115;-79
2021/04/10 09:34:56;;;;;;;6.78;3.78;;;15.40;37.00;;;;;;5090970;28;20474;-80
2021/04/10 09:37:21;;;;;;;6.65;4.05;;;15.80;37.90;;;;;;5094556;28;20024;-81
2021/04/10 09:39:51;;;;;;;5.95;3.83;;;16.00;37.30;;;;;;5089063;28;20039;-80
2021/04/10 09:45:11;;;;;;;9.07;7.07;;;16.60;36.00;;;;;;5099858;28;20024;-80
2021/04/10 09:48:01;;;;;;;8.20;2.92;;;16.80;35.90;;;;;;5093013;28;20073;-81
2021/04/10 09:50:37;;;;;;;5.70;3.53;;;17.00;35.40;;;;;;5091103;28;20024;-80
2021/04/10 09:53:24;;;;;;;7.97;2.83;;;16.80;34.00;;;;;;5093097;28;20020;-81
2021/04/10 09:55:50;;;;;;;5.18;3.17;;;16.70;34.20;;;;;;5093305;28;20020;-80
2021/04/10 09:58:19;;;;;;;6.07;3.60;;;16.80;34.60;;;;;;5094653;28;20032;-80
2021/04/10 10:00:47;;;;;;;7.82;3.25;;;17.00;34.50;;;;;;5092605;28;20168;-81
2021/04/10 10:03:15;;;;;;;3.53;2.90;;;17.00;34.40;;;;;;5093215;28;20023;-81
2021/04/10 10:05:50;;;;;;;4.43;3.38;;;17.10;33.90;;;;;;5092982;28;20027;-82
2021/04/10 10:08:17;;;;;;;53.60;7.03;;;17.20;33.60;;;;;;5093180;28;20028;-83
2021/04/10 10:10:45;;;;;;;4.57;2.70;;;17.30;33.90;;;;;;5091476;28;20054;-82
2021/04/10 10:13:16;;;;;;;4.25;2.63;;;17.40;33.30;;;;;;5096172;28;20024;-82
2021/04/10 10:15:44;;;;;;;6.40;2.83;;;17.30;32.60;;;;;;5089186;28;20029;-82
2021/04/10 10:18:17;;;;;;;3.28;2.53;;;17.40;32.90;;;;;;5075481;28;20386;-81
2021/04/10 10:21:01;;;;;;;;;;;17.70;33.80;;;;;;5075603;28;20112;-81
2021/04/10 10:23:43;;;;;;;11.75;3.70;;;17.70;32.60;;;;;;5075626;28;20034;-83
2021/04/10 10:26:08;;;;;;;6.07;2.57;;;17.70;32.20;;;;;;5123131;27;20043;-81
2021/04/10 10:28:36;;;;;;;9.65;2.88;;;17.70;32.80;;;;;;5111983;28;20266;-82
2021/04/10 10:31:13;;;;;;;5.32;2.55;;;17.60;32.20;;;;;;5078786;28;20060;-83
2021/04/10 10:33:40;;;;;;;4.97;2.65;;;17.60;32.30;;;;;;5088654;28;20020;-83
2021/04/10 10:36:06;;;;;;;4.38;2.40;;;17.50;31.40;;;;;;5102541;28;20026;-83
2021/04/10 10:38:38;;;;;;;6.28;2.70;;;17.70;31.70;;;;;;5104531;28;20032;-83
2021/04/10 10:41:07;;;;;;;5.47;2.70;;;17.70;31.20;;;;;;5103346;28;20113;-83
2021/04/10 10:43:34;;;;;;;6.53;3.15;;;18.00;32.10;;;;;;5102799;28;20012;-83
2021/04/10 10:46:03;;;;;;;4.70;2.72;;;18.10;31.20;;;;;;5100484;28;20024;-82
2021/04/10 10:48:37;;;;;;;8.20;3.45;;;18.10;30.70;;;;;;5088670;28;20024;-82
2021/04/10 10:51:06;;;;;;;5.18;2.35;;;18.10;30.70;;;;;;5100299;28;20024;-82
2021/04/10 10:53:45;;;;;;;3.33;2.08;;;18.20;30.90;;;;;;5103518;28;20358;-82
2021/04/10 10:56:27;;;;;;;3.42;2.40;;;18.20;30.40;;;;;;5107352;28;20026;-83
2021/04/10 10:58:57;;;;;;;6.22;2.95;;;18.10;30.20;;;;;;5108659;28;20477;-80
2021/04/10 11:01:28;;;;;;;4.38;2.30;;;17.80;29.70;;;;;;5095085;28;20526;-82
2021/04/10 11:04:00;;;;;;;6.07;2.78;;;18.00;30.30;;;;;;5091540;28;20477;-82
2021/04/10 11:06:28;;;;;;;6.40;2.70;;;17.90;29.80;;;;;;5088030;28;20100;-82
2021/04/10 11:08:54;;;;;;;3.58;2.72;;;17.80;29.90;;;;;;5089038;28;20024;-80
2021/04/10 11:11:28;;;;;;;4.50;2.70;;;17.90;30.30;;;;;;5102415;28;20032;-81
2021/04/10 11:13:54;;;;;;;8.90;5.72;;;18.00;31.10;;;;;;5074103;28;20405;-81
2021/04/10 11:16:20;;;;;;;7.25;3.20;;;18.10;31.70;;;;;;5098223;28;20012;-81
2021/04/10 11:18:52;;;;;;;3.83;3.28;;;18.30;32.40;;;;;;5097740;28;20427;-81
2021/04/10 11:21:27;;;;;;;4.05;3.22;;;18.40;32.00;;;;;;5114881;28;20041;-81
2021/04/10 11:23:56;;;;;;;4.25;3.25;;;18.20;30.60;;;;;;5091416;28;20029;-80
2021/04/10 11:26:41;;;;;;;5.18;3.25;;;18.30;31.60;;;;;;5073017;28;20099;-82
2021/04/10 11:29:17;;;;;;;7.75;3.30;;;18.10;31.30;;;;;;5087964;28;20036;-81
2021/04/10 11:31:44;;;;;;;5.35;3.47;;;18.20;31.80;;;;;;5088702;28;20024;-81
2021/04/10 11:34:37;;;;;;;7.68;3.42;;;18.30;32.20;;;;;;5075227;28;20078;-81
2021/04/10 11:37:04;;;;;;;5.45;3.17;;;18.50;32.90;;;;;;5073841;28;20024;-82
2021/04/10 11:39:30;;;;;;;9.73;5.38;;;18.50;32.10;;;;;;5090526;28;20040;-83
2021/04/10 11:41:57;;;;;;;6.28;3.53;;;18.60;31.70;;;;;;5098793;28;20042;-81
2021/04/10 11:44:23;;;;;;;6.68;3.60;;;18.60;31.30;;;;;;5109866;28;20015;-82
2021/04/10 11:46:59;;;;;;;3.35;2.83;;;18.50;30.80;;;;;;5102348;28;20068;-82
2021/04/10 11:49:29;;;;;;;7.25;3.78;;;18.60;31.30;;;;;;5103606;28;20020;-82
2021/04/10 11:52:09;;;;;;;5.25;2.92;;;18.70;32.10;;;;;;5102756;28;20406;-81
2021/04/10 11:54:36;;;;;;;8.63;4.25;;;18.80;32.00;;;;;;5101135;28;20077;-82
2021/04/10 11:57:02;;;;;;;4.28;3.20;;;18.80;31.20;;;;;;5094849;28;20059;-82
2021/04/10 11:59:32;;;;;;;4.00;2.60;;;18.60;30.20;;;;;;5086335;28;20137;-82
2021/04/10 12:02:01;;;;;;;3.92;2.83;;;18.50;30.40;;;;;;5085597;28;20042;-82
2021/04/10 12:04:31;;;;;;;6.50;3.47;;;18.60;31.30;;;;;;5085972;28;20047;-82
2021/04/10 12:07:05;;;;;;;7.20;3.30;;;18.80;31.90;;;;;;5087028;28;20020;-81
2021/04/10 12:09:34;;;;;;;6.68;3.05;;;18.80;31.80;;;;;;5088536;28;20374;-83
2021/04/10 12:12:00;;;;;;;4.32;2.80;;;18.80;31.50;;;;;;5077997;28;20024;-81
2021/04/10 12:14:26;;;;;;;7.88;3.30;;;18.50;30.90;;;;;;5090994;28;20035;-82
2021/04/10 12:16:52;;;;;;;7.03;4.90;;;18.50;31.40;;;;;;5089890;28;20389;-83
2021/04/10 12:19:17;;;;;;;4.28;3.47;;;18.50;31.90;;;;;;5085875;28;20024;-81
2021/04/10 12:21:44;;;;;;;6.30;3.15;;;18.50;32.40;;;;;;5094812;28;20402;-82
2021/04/10 12:24:10;;;;;;;4.43;2.97;;;18.40;32.10;;;;;;5092436;28;20462;-81
2021/04/10 12:26:39;;;;;;;3.05;2.50;;;18.20;31.50;;;;;;5094985;28;20020;-81
2021/04/10 12:29:05;;;;;;;5.68;3.17;;;18.20;31.40;;;;;;5111149;28;20027;-81
2021/04/10 12:31:30;;;;;;;4.80;2.80;;;18.30;32.30;;;;;;5094384;28;20016;-82
2021/04/10 12:33:56;;;;;;;3.53;2.80;;;18.40;32.00;;;;;;5091590;28;20030;-81
2021/04/10 12:36:22;;;;;;;4.60;3.28;;;18.40;31.70;;;;;;5091646;28;20105;-81
2021/04/10 12:38:47;;;;;;;8.40;3.50;;;18.30;31.30;;;;;;5091273;28;20036;-82
2021/04/10 12:41:14;;;;;;;3.95;2.50;;;18.50;31.70;;;;;;5093974;28;20032;-81
2021/04/10 12:43:40;;;;;;;5.93;3.35;;;18.40;31.60;;;;;;5092525;28;20016;-81
2021/04/10 12:46:07;;;;;;;5.68;2.70;;;18.30;31.30;;;;;;5091649;28;20039;-81
2021/04/10 12:48:33;;;;;;;5.60;3.00;;;18.20;31.50;;;;;;5092013;28;20046;-81
2021/04/10 12:50:58;;;;;;;4.95;2.67;;;18.20;32.00;;;;;;5094535;28;20460;-82
2021/04/10 12:53:24;;;;;;;3.33;2.65;;;18.00;31.50;;;;;;5093210;28;20028;-81